createdAt,value
2018-05-15T00:00:56.257Z,1031.44
2018-05-15T00:01:56.246Z,1031.43
2018-05-15T00:02:56.300Z,1031.44
2018-05-15T00:03:56.232Z,1031.42
2018-05-15T00:04:56.231Z,1031.44
2018-05-15T00:05:56.221Z,1031.36
2018-05-15T00:06:56.218Z,1031.35
2018-05-15T00:07:56.208Z,1031.37
2018-05-15T00:08:56.208Z,1031.33
2018-05-15T00:09:56.195Z,1031.38
2018-05-15T00:10:56.194Z,1031.34
2018-05-15T00:11:56.188Z,1031.34
2018-05-15T00:12:56.182Z,1031.35
2018-05-15T00:13:56.171Z,1031.35
2018-05-15T00:14:56.170Z,1031.3
2018-05-15T00:15:56.159Z,1031.33
2018-05-15T00:16:56.153Z,1031.31
2018-05-15T00:17:56.146Z,1031.33
2018-05-15T00:18:56.145Z,1031.33
2018-05-15T00:19:56.134Z,1031.27
2018-05-15T00:20:56.133Z,1031.27
2018-05-15T00:21:56.122Z,1031.25
2018-05-15T00:22:56.121Z,1031.24
2018-05-15T00:23:56.111Z,1031.19
2018-05-15T00:24:56.107Z,1031.17
2018-05-15T00:25:56.096Z,1031.18
2018-05-15T00:26:56.095Z,1031.21
2018-05-15T00:27:56.084Z,1031.18
2018-05-15T00:28:56.088Z,1031.18
2018-05-15T00:29:56.077Z,1031.19
2018-05-15T00:30:56.071Z,1031.18
2018-05-15T00:31:56.060Z,1031.16
2018-05-15T00:32:56.053Z,1031.14
2018-05-15T00:33:56.047Z,1031.16
2018-05-15T00:34:56.046Z,1031.18
2018-05-15T00:35:56.034Z,1031.16
2018-05-15T00:36:56.033Z,1031.17
2018-05-15T00:37:56.022Z,1031.19
2018-05-15T00:38:56.021Z,1031.18
2018-05-15T00:39:56.009Z,1031.19
2018-05-15T00:40:56.008Z,1031.18
2018-05-15T00:41:55.997Z,1031.15
2018-05-15T00:42:55.996Z,1031.13
2018-05-15T00:43:55.989Z,1031.11
2018-05-15T00:44:55.984Z,1031.1
2018-05-15T00:45:55.973Z,1031.1
2018-05-15T00:46:55.965Z,1031.13
2018-05-15T00:47:55.964Z,1031.09
2018-05-15T00:48:55.958Z,1031.09
2018-05-15T00:49:55.951Z,1031.08
2018-05-15T00:50:55.939Z,1031.04
2018-05-15T00:51:55.939Z,1031.06
2018-05-15T00:52:55.932Z,1031.06
2018-05-15T00:53:55.921Z,1031.07
2018-05-15T00:54:55.918Z,1031.11
2018-05-15T00:55:55.908Z,1031.09
2018-05-15T00:56:55.908Z,1031.15
2018-05-15T00:57:55.895Z,1031.11
2018-05-15T00:58:55.894Z,1031.12
2018-05-15T00:59:55.899Z,1031.15
2018-05-15T01:00:55.883Z,1031.14
2018-05-15T01:01:55.869Z,1031.12
2018-05-15T01:02:55.864Z,1031.1
2018-05-15T01:03:55.868Z,1031.13
2018-05-15T01:04:55.856Z,1031.12
2018-05-15T01:05:55.849Z,1031.11
2018-05-15T01:06:55.845Z,1031.12
2018-05-15T01:07:55.837Z,1031.12
2018-05-15T01:08:55.824Z,1031.18
2018-05-15T01:09:55.827Z,1031.2
2018-05-15T01:10:55.814Z,1031.19
2018-05-15T01:11:55.811Z,1031.15
2018-05-15T01:12:55.799Z,1031.18
2018-05-15T01:13:55.799Z,1031.16
2018-05-15T01:14:55.788Z,1031.17
2018-05-15T01:15:55.780Z,1031.12
2018-05-15T01:16:55.782Z,1031.13
2018-05-15T01:17:55.772Z,1031.13
2018-05-15T01:18:55.762Z,1031.11
2018-05-15T01:19:55.760Z,1031.09
2018-05-15T01:20:55.753Z,1031.09
2018-05-15T01:21:55.750Z,1031.07
2018-05-15T01:22:55.739Z,1031.07
2018-05-15T01:23:55.735Z,1031.07
2018-05-15T01:24:55.724Z,1031.08
2018-05-15T01:25:55.723Z,1031.04
2018-05-15T01:26:55.711Z,1031
2018-05-15T01:27:55.709Z,1031.03
2018-05-15T01:28:55.698Z,1031.06
2018-05-15T01:29:55.697Z,1031.05
2018-05-15T01:30:55.684Z,1031.02
2018-05-15T01:31:55.677Z,1031.07
2018-05-15T01:32:55.672Z,1031.04
2018-05-15T01:33:55.670Z,1031.03
2018-05-15T01:34:55.666Z,1031.06
2018-05-15T01:35:55.652Z,1031.04
2018-05-15T01:36:55.645Z,1031.08
2018-05-15T01:37:55.638Z,1031.06
2018-05-15T01:38:55.644Z,1031.05
2018-05-15T01:39:55.625Z,1031.1
2018-05-15T01:40:55.625Z,1031.08
2018-05-15T01:41:55.612Z,1031.02
2018-05-15T01:42:55.611Z,1031.05
2018-05-15T01:43:55.664Z,1031.06
2018-05-15T01:44:55.592Z,1031.03
2018-05-15T01:45:55.592Z,1031.02
2018-05-15T01:46:55.579Z,1030.99
2018-05-15T01:47:55.577Z,1031.02
2018-05-15T01:48:55.566Z,1031.04
2018-05-15T01:49:55.569Z,1030.99
2018-05-15T01:50:55.559Z,1031
2018-05-15T01:51:55.548Z,1030.94
2018-05-15T01:52:55.539Z,1030.96
2018-05-15T01:53:55.533Z,1030.97
2018-05-15T01:54:55.531Z,1030.96
2018-05-15T01:55:55.519Z,1030.94
2018-05-15T01:56:55.520Z,1030.96
2018-05-15T01:57:55.507Z,1030.98
2018-05-15T01:58:55.505Z,1030.97
2018-05-15T01:59:55.492Z,1031
2018-05-15T02:00:55.492Z,1030.95
2018-05-15T02:01:55.478Z,1030.97
2018-05-15T02:02:55.478Z,1031
2018-05-15T02:03:55.471Z,1030.98
2018-05-15T02:04:55.463Z,1031.05
2018-05-15T02:05:55.454Z,1031.02
2018-05-15T02:06:55.445Z,1031.06
2018-05-15T02:07:55.444Z,1031.05
2018-05-15T02:08:55.438Z,1031.05
2018-05-15T02:09:55.426Z,1031.04
2018-05-15T02:10:55.425Z,1031.03
2018-05-15T02:11:55.413Z,1031.02
2018-05-15T02:12:55.412Z,1031.02
2018-05-15T02:13:55.400Z,1031.04
2018-05-15T02:14:55.401Z,1031.03
2018-05-15T02:15:55.386Z,1031.02
2018-05-15T02:16:55.384Z,1031.02
2018-05-15T02:17:55.372Z,1031.01
2018-05-15T02:18:55.370Z,1030.95
2018-05-15T02:19:55.364Z,1030.94
2018-05-15T02:20:55.358Z,1030.95
2018-05-15T02:21:55.345Z,1030.92
2018-05-15T02:22:55.340Z,1030.92
2018-05-15T02:23:55.338Z,1030.91
2018-05-15T02:24:55.331Z,1030.91
2018-05-15T02:25:55.324Z,1030.86
2018-05-15T02:26:55.312Z,1030.82
2018-05-15T02:27:55.310Z,1030.75
2018-05-15T02:28:55.297Z,1030.71
2018-05-15T02:29:55.297Z,1030.69
2018-05-15T02:30:55.286Z,1030.66
2018-05-15T02:31:55.285Z,1030.7
2018-05-15T02:32:55.271Z,1030.66
2018-05-15T02:33:55.271Z,1030.62
2018-05-15T02:34:55.259Z,1030.63
2018-05-15T02:35:55.259Z,1030.61
2018-05-15T02:36:55.252Z,1030.59
2018-05-15T02:37:55.240Z,1030.55
2018-05-15T02:38:55.234Z,1030.57
2018-05-15T02:39:55.234Z,1030.58
2018-05-15T02:40:55.225Z,1030.54
2018-05-15T02:41:55.219Z,1030.55
2018-05-15T02:42:55.208Z,1030.57
2018-05-15T02:43:55.216Z,1030.58
2018-05-15T02:44:55.211Z,1030.63
2018-05-15T02:45:55.193Z,1030.63
2018-05-15T02:46:55.182Z,1030.68
2018-05-15T02:47:55.189Z,1030.72
2018-05-15T02:48:55.168Z,1030.73
2018-05-15T02:49:55.168Z,1030.72
2018-05-15T02:50:55.155Z,1030.75
2018-05-15T02:51:55.149Z,1030.75
2018-05-15T02:52:55.142Z,1030.73
2018-05-15T02:53:55.142Z,1030.73
2018-05-15T02:54:55.135Z,1030.66
2018-05-15T02:55:55.124Z,1030.65
2018-05-15T02:56:55.117Z,1030.6
2018-05-15T02:57:55.111Z,1030.6
2018-05-15T02:58:55.111Z,1030.59
2018-05-15T02:59:55.102Z,1030.57
2018-05-15T03:00:55.094Z,1030.57
2018-05-15T03:01:55.091Z,1030.55
2018-05-15T03:02:55.080Z,1030.5
2018-05-15T03:03:55.078Z,1030.52
2018-05-15T03:04:55.067Z,1030.49
2018-05-15T03:05:55.065Z,1030.53
2018-05-15T03:06:55.069Z,1030.52
2018-05-15T03:07:55.048Z,1030.5
2018-05-15T03:08:55.041Z,1030.56
2018-05-15T03:09:55.043Z,1030.58
2018-05-15T03:10:55.034Z,1030.58
2018-05-15T03:11:55.031Z,1030.61
2018-05-15T03:12:55.018Z,1030.56
2018-05-15T03:13:55.013Z,1030.56
2018-05-15T03:14:55.016Z,1030.5
2018-05-15T03:15:54.997Z,1030.5
2018-05-15T03:16:54.995Z,1030.52
2018-05-15T03:17:54.984Z,1030.52
2018-05-15T03:18:54.982Z,1030.56
2018-05-15T03:19:54.973Z,1030.58
2018-05-15T03:20:54.969Z,1030.55
2018-05-15T03:21:54.958Z,1030.56
2018-05-15T03:22:54.957Z,1030.54
2018-05-15T03:23:54.951Z,1030.56
2018-05-15T03:24:54.944Z,1030.61
2018-05-15T03:25:54.933Z,1030.59
2018-05-15T03:26:54.932Z,1030.61
2018-05-15T03:27:54.919Z,1030.65
2018-05-15T03:28:54.914Z,1030.63
2018-05-15T03:29:54.907Z,1030.61
2018-05-15T03:30:54.906Z,1030.63
2018-05-15T03:31:54.894Z,1030.61
2018-05-15T03:32:54.893Z,1030.58
2018-05-15T03:33:54.882Z,1030.65
2018-05-15T03:34:54.885Z,1030.66
2018-05-15T03:35:54.869Z,1030.67
2018-05-15T03:36:54.867Z,1030.63
2018-05-15T03:37:54.855Z,1030.67
2018-05-15T03:38:54.858Z,1030.66
2018-05-15T03:39:54.843Z,1030.61
2018-05-15T03:40:54.838Z,1030.61
2018-05-15T03:41:54.835Z,1030.55
2018-05-15T03:42:54.828Z,1030.53
2018-05-15T03:43:54.820Z,1030.45
2018-05-15T03:44:54.811Z,1030.44
2018-05-15T03:45:54.803Z,1030.45
2018-05-15T03:46:54.804Z,1030.42
2018-05-15T03:47:54.791Z,1030.43
2018-05-15T03:48:54.791Z,1030.42
2018-05-15T03:49:54.782Z,1030.39
2018-05-15T03:50:54.778Z,1030.38
2018-05-15T03:51:54.766Z,1030.35
2018-05-15T03:52:54.759Z,1030.28
2018-05-15T03:53:54.758Z,1030.24
2018-05-15T03:54:54.748Z,1030.23
2018-05-15T03:55:54.742Z,1030.18
2018-05-15T03:56:54.734Z,1030.09
2018-05-15T03:57:54.734Z,1029.97
2018-05-15T03:58:54.728Z,1029.91
2018-05-15T03:59:54.718Z,1029.77
2018-05-15T04:00:54.710Z,1029.65
2018-05-15T04:01:54.704Z,1029.5
2018-05-15T04:02:54.704Z,1029.34
2018-05-15T04:03:54.692Z,1029.19
2018-05-15T04:04:54.693Z,1029.13
2018-05-15T04:05:54.681Z,1029
2018-05-15T04:06:54.683Z,1028.85
2018-05-15T04:07:54.670Z,1028.66
2018-05-15T04:08:54.670Z,1028.52
2018-05-15T04:09:54.660Z,1028.35
2018-05-15T04:10:54.780Z,1028.25
2018-05-15T04:11:54.655Z,1028.1
2018-05-15T04:12:54.651Z,1028.01
2018-05-15T04:13:54.641Z,1027.91
2018-05-15T04:14:54.636Z,1027.82
2018-05-15T04:15:54.638Z,1027.74
2018-05-15T04:16:54.633Z,1027.69
2018-05-15T04:17:54.624Z,1027.55
2018-05-15T04:18:54.624Z,1027.46
2018-05-15T04:19:54.616Z,1027.27
2018-05-15T04:20:54.617Z,1027.2
2018-05-15T04:21:54.615Z,1027.07
2018-05-15T04:22:54.612Z,1027.01
2018-05-15T04:23:54.602Z,1026.91
2018-05-15T04:24:54.604Z,1026.91
2018-05-15T04:25:54.596Z,1026.83
2018-05-15T04:26:54.598Z,1026.8
2018-05-15T04:27:54.596Z,1026.72
2018-05-15T04:28:54.593Z,1026.64
2018-05-15T04:29:54.585Z,1026.62
2018-05-15T04:30:54.586Z,1026.54
2018-05-15T04:31:54.586Z,1026.52
2018-05-15T04:32:54.584Z,1026.52
2018-05-15T04:33:54.583Z,1026.44
2018-05-15T04:34:54.639Z,1026.37
2018-05-15T04:35:54.580Z,1026.3
2018-05-15T04:36:54.572Z,1026.25
2018-05-15T04:37:54.576Z,1026.19
2018-05-15T04:38:54.570Z,1026.11
2018-05-15T04:39:54.575Z,1026
2018-05-15T04:40:54.567Z,1025.88
2018-05-15T04:41:54.573Z,1025.81
2018-05-15T04:42:54.565Z,1025.64
2018-05-15T04:43:54.753Z,1025.59
2018-05-15T04:44:54.568Z,1025.52
2018-05-15T04:45:54.563Z,1025.53
2018-05-15T04:46:54.563Z,1025.52
2018-05-15T04:47:54.568Z,1025.49
2018-05-15T04:48:54.567Z,1025.5
2018-05-15T04:49:54.573Z,1025.47
2018-05-15T04:50:54.563Z,1025.51
2018-05-15T04:51:54.567Z,1025.55
2018-05-15T04:52:54.565Z,1025.53
2018-05-15T04:53:54.569Z,1025.51
2018-05-15T04:54:54.564Z,1025.55
2018-05-15T04:55:54.570Z,1025.57
2018-05-15T04:56:54.565Z,1025.52
2018-05-15T05:05:54.566Z,1025.24
2018-05-15T05:06:54.565Z,1025.25
2018-05-15T05:07:54.566Z,1025.65
2018-05-15T05:08:54.575Z,1026.09
2018-05-15T05:09:54.566Z,1026.21
2018-05-15T05:10:54.572Z,1026.23
2018-05-15T05:11:54.570Z,1026.35
2018-05-15T05:12:54.575Z,1026.56
2018-05-15T05:13:54.569Z,1026.77
2018-05-15T05:14:54.575Z,1026.99
2018-05-15T05:15:54.571Z,1027.12
2018-05-15T05:16:54.575Z,1027.12
2018-05-15T05:17:54.573Z,1027.26
2018-05-15T05:18:54.572Z,1027.17
2018-05-15T05:20:54.634Z,1026.98
2018-05-15T05:21:54.578Z,1027
2018-05-15T05:22:54.571Z,1026.96
2018-05-15T05:23:54.571Z,1026.95
2018-05-15T05:24:54.570Z,1027.11
2018-05-15T05:25:54.575Z,1027.36
2018-05-15T05:26:54.571Z,1027.08
2018-05-15T05:27:54.575Z,1026.83
2018-05-15T05:28:54.570Z,1026.6
2018-05-15T05:29:54.575Z,1026.2
2018-05-15T05:30:54.570Z,1025.96
2018-05-15T05:31:54.569Z,1026.05
2018-05-15T05:32:54.574Z,1026.19
2018-05-15T05:33:54.570Z,1026.36
2018-05-15T05:35:54.569Z,1026.98
2018-05-15T05:36:54.575Z,1026.65
2018-05-15T05:37:54.575Z,1026.97
2018-05-15T05:38:54.569Z,1026.8
2018-05-15T05:39:54.572Z,1026.9
2018-05-15T05:40:54.570Z,1026.59
2018-05-15T05:41:54.575Z,1026.08
2018-05-15T05:42:54.569Z,1025.68
2018-05-15T05:43:54.570Z,1025.36
2018-05-15T05:44:54.575Z,1025.08
2018-05-15T05:45:54.571Z,1024.89
2018-05-15T05:46:54.576Z,1024.78
2018-05-15T05:47:54.572Z,1024.73
2018-05-15T05:48:54.579Z,1024.66
2018-05-15T05:49:54.579Z,1024.56
2018-05-15T05:50:54.576Z,1024.37
2018-05-15T05:51:54.591Z,1024.26
2018-05-15T05:52:54.588Z,1024.23
2018-05-15T05:53:54.588Z,1024.27
2018-05-15T05:54:54.587Z,1024.24
2018-05-15T05:55:54.595Z,1024.17
2018-05-15T05:56:54.595Z,1024.01
2018-05-15T05:57:54.601Z,1023.86
2018-05-15T05:58:54.599Z,1023.71
2018-05-15T05:59:54.610Z,1023.56
2018-05-15T06:00:54.615Z,1023.54
2018-05-15T06:01:54.625Z,1023.44
2018-05-15T06:02:54.620Z,1023.4
2018-05-15T06:03:54.635Z,1023.34
2018-05-15T06:04:54.628Z,1023.39
2018-05-15T06:05:54.638Z,1023.45
2018-05-15T06:06:54.644Z,1023.53
2018-05-15T06:07:54.654Z,1023.59
2018-05-15T06:08:54.652Z,1023.66
2018-05-15T06:09:54.666Z,1023.75
2018-05-15T06:10:54.667Z,1023.82
2018-05-15T06:11:54.669Z,1023.72
2018-05-15T06:12:54.676Z,1023.52
2018-05-15T06:13:54.720Z,1023.48
2018-05-15T06:14:54.693Z,1023.55
2018-05-15T06:15:54.700Z,1023.48
2018-05-15T06:16:54.701Z,1023.37
2018-05-15T06:17:54.719Z,1023.21
2018-05-15T06:18:54.715Z,1023.06
2018-05-15T06:19:54.728Z,1022.6
2018-05-15T06:20:54.792Z,1022.97
2018-05-15T06:21:54.742Z,1023.18
2018-05-15T06:22:54.748Z,1022.95
2018-05-15T06:23:54.755Z,1022.87
2018-05-15T06:24:54.769Z,1022.69
2018-05-15T06:25:54.766Z,1022.79
2018-05-15T06:26:54.777Z,1022.76
2018-05-15T06:27:54.800Z,1022.66
2018-05-15T06:28:54.812Z,1022.48
2018-05-15T06:29:54.810Z,1022.29
2018-05-15T06:30:54.821Z,1022.11
2018-05-15T06:31:54.828Z,1021.92
2018-05-15T06:32:54.836Z,1021.82
2018-05-15T06:33:54.843Z,1021.76
2018-05-15T06:34:54.840Z,1021.75
2018-05-15T06:35:54.849Z,1021.67
2018-05-15T06:36:54.852Z,1021.57
2018-05-15T06:37:54.865Z,1021.43
2018-05-15T06:38:54.874Z,1021.33
2018-05-15T06:39:54.882Z,1021.21
2018-05-15T06:40:54.887Z,1021.11
2018-05-15T06:41:54.896Z,1021.09
2018-05-15T06:42:54.909Z,1021.16
2018-05-15T06:43:54.919Z,1021.15
2018-05-15T06:44:54.930Z,1021.24
2018-05-15T06:45:54.932Z,1021.27
2018-05-15T06:46:54.947Z,1021.3
2018-05-15T06:47:54.952Z,1021.42
2018-05-15T06:48:54.966Z,1021.48
2018-05-15T06:49:54.971Z,1021.59
2018-05-15T06:50:54.986Z,1021.59
2018-05-15T06:51:54.989Z,1021.54
2018-05-15T06:52:55.010Z,1021.46
2018-05-15T06:53:55.020Z,1021.41
2018-05-15T06:54:55.021Z,1021.32
2018-05-15T06:55:55.029Z,1021.17
2018-05-15T06:56:55.046Z,1021.08
2018-05-15T06:57:55.054Z,1021.05
2018-05-15T06:58:55.059Z,1021.02
2018-05-15T06:59:55.069Z,1021.02
2018-05-15T07:00:55.084Z,1021.38
2018-05-15T07:01:55.178Z,1021.47
2018-05-15T07:02:55.103Z,1021.83
2018-05-15T07:03:55.110Z,1021.72
2018-05-15T07:04:55.123Z,1021.72
2018-05-15T07:05:55.130Z,1021.71
2018-05-15T07:06:55.142Z,1021.75
2018-05-15T07:07:55.147Z,1021.66
2018-05-15T07:08:55.161Z,1021.54
2018-05-15T07:09:55.167Z,1021.51
2018-05-15T07:10:55.176Z,1021.6
2018-05-15T07:11:55.186Z,1021.73
2018-05-15T07:12:55.201Z,1021.78
2018-05-15T07:13:55.289Z,1021.64
2018-05-15T07:14:55.220Z,1021.48
2018-05-15T07:15:55.233Z,1021.36
2018-05-15T07:16:55.240Z,1021.1
2018-05-15T07:17:55.243Z,1021.07
2018-05-15T07:18:55.259Z,1021.36
2018-05-15T07:19:55.267Z,1021.18
2018-05-15T07:20:55.282Z,1021.06
2018-05-15T07:21:55.297Z,1020.96
2018-05-15T07:22:55.307Z,1021.02
2018-05-15T07:23:55.303Z,1021.06
2018-05-15T07:24:55.322Z,1021.01
2018-05-15T07:25:55.322Z,1020.98
2018-05-15T07:26:55.337Z,1020.97
2018-05-15T07:27:55.355Z,1020.91
2018-05-15T07:28:55.355Z,1020.88
2018-05-15T07:29:55.361Z,1020.79
2018-05-15T07:30:55.379Z,1020.8
2018-05-15T07:31:55.388Z,1020.82
2018-05-15T07:32:55.396Z,1020.97
2018-05-15T07:33:55.401Z,1021.08
2018-05-15T07:34:55.416Z,1021.21
2018-05-15T07:35:55.421Z,1021.23
2018-05-15T07:36:55.435Z,1021.28
2018-05-15T07:37:55.443Z,1021.3
2018-05-15T07:38:55.456Z,1021.13
2018-05-15T07:39:55.460Z,1021.14
2018-05-15T07:40:55.475Z,1021.17
2018-05-15T07:41:55.481Z,1021.17
2018-05-15T07:42:55.489Z,1021.15
2018-05-15T07:43:55.500Z,1021.03
2018-05-15T07:44:55.520Z,1020.84
2018-05-15T07:45:55.529Z,1020.66
2018-05-15T07:46:55.536Z,1020.52
2018-05-15T07:47:55.537Z,1020.33
2018-05-15T07:48:55.553Z,1020.35
2018-05-15T07:49:55.572Z,1020.37
2018-05-15T07:50:55.588Z,1020.4
2018-05-15T07:51:55.581Z,1020.28
2018-05-15T07:52:55.596Z,1020.36
2018-05-15T07:53:55.615Z,1020.29
2018-05-15T07:54:55.627Z,1020.23
2018-05-15T07:55:55.617Z,1020.42
2018-05-15T07:56:55.654Z,1020.49
2018-05-15T07:57:55.664Z,1020.91
2018-05-15T07:58:55.652Z,1021.09
2018-05-15T07:59:55.663Z,1021.17
2018-05-15T08:00:55.673Z,1021.04
2018-05-15T08:01:55.683Z,1020.83
2018-05-15T08:02:55.692Z,1020.51
2018-05-15T08:03:55.694Z,1020.3
2018-05-15T08:04:55.706Z,1020.12
2018-05-15T08:05:55.733Z,1020
2018-05-15T08:06:55.724Z,1020.03
2018-05-15T08:07:55.747Z,1020.01
2018-05-15T08:08:55.742Z,1020.11
2018-05-15T08:09:55.757Z,1020.1
2018-05-15T08:10:55.762Z,1020.12
2018-05-15T08:11:55.787Z,1020.21
2018-05-15T08:12:55.781Z,1020.26
2018-05-15T08:13:55.811Z,1020.3
2018-05-15T08:14:55.825Z,1020.28
2018-05-15T08:15:55.821Z,1020.35
2018-05-15T08:16:55.829Z,1020.41
2018-05-15T08:17:55.834Z,1020.45
2018-05-15T08:18:55.852Z,1020.38
2018-05-15T08:19:55.847Z,1020.35
2018-05-15T08:20:55.872Z,1020.32
2018-05-15T08:21:55.873Z,1020.21
2018-05-15T08:22:56.083Z,1020.11
2018-05-15T08:23:55.904Z,1019.89
2018-05-15T08:24:55.901Z,1019.99
2018-05-15T08:25:55.910Z,1019.86
2018-05-15T08:26:55.925Z,1020.32
2018-05-15T08:27:55.929Z,1020.28
2018-05-15T08:28:55.936Z,1020.02
2018-05-15T08:29:55.965Z,1020.11
2018-05-15T08:30:56.086Z,1020.32
2018-05-15T08:31:55.969Z,1020.58
2018-05-15T08:32:55.972Z,1021.36
2018-05-15T08:33:55.982Z,1021.55
2018-05-15T08:34:55.995Z,1021.34
2018-05-15T08:35:56.006Z,1021.24
2018-05-15T08:36:56.019Z,1021.35
2018-05-15T08:37:56.016Z,1020.95
2018-05-15T08:38:56.033Z,1020.61
2018-05-15T08:39:56.045Z,1020.43
2018-05-15T08:40:56.048Z,1020.58
2018-05-15T08:41:56.051Z,1021.08
2018-05-15T08:42:56.065Z,1021.86
2018-05-15T08:43:56.074Z,1022.42
2018-05-15T08:44:56.078Z,1022.82
2018-05-15T08:45:56.094Z,1023.31
2018-05-15T08:46:56.105Z,1023.72
2018-05-15T08:47:56.109Z,1023.93
2018-05-15T08:48:56.120Z,1024.13
2018-05-15T08:49:56.115Z,1024.31
2018-05-15T08:50:56.131Z,1024.36
2018-05-15T08:51:56.135Z,1024.62
2018-05-15T08:52:56.142Z,1024.55
2018-05-15T08:53:56.143Z,1024.77
2018-05-15T08:54:56.161Z,1024.89
2018-05-15T08:55:56.155Z,1025.15
2018-05-15T08:56:56.166Z,1025.35
2018-05-15T08:57:56.166Z,1025.55
2018-05-15T08:58:56.186Z,1025.57
2018-05-15T08:59:56.173Z,1025.67
2018-05-15T09:00:56.204Z,1025.89
2018-05-15T09:01:56.186Z,1025.92
2018-05-15T09:02:56.209Z,1026.14
2018-05-15T09:03:56.208Z,1026.12
2018-05-15T09:04:56.218Z,1026.22
2018-05-15T09:05:56.207Z,1026.33
2018-05-15T09:06:56.215Z,1026.3
2018-05-15T09:07:56.205Z,1026.33
2018-05-15T09:08:56.218Z,1026.44
2018-05-15T09:09:56.211Z,1026.61
2018-05-15T09:10:56.213Z,1026.49
2018-05-15T09:11:56.212Z,1026.57
2018-05-15T09:12:56.217Z,1026.68
2018-05-15T09:13:56.214Z,1026.57
2018-05-15T09:14:56.220Z,1026.63
2018-05-15T09:15:56.220Z,1026.6
2018-05-15T09:16:56.222Z,1026.68
2018-05-15T09:17:56.220Z,1026.7
2018-05-15T09:18:56.220Z,1026.66
2018-05-15T09:19:56.221Z,1026.68
2018-05-15T09:20:56.241Z,1026.66
2018-05-15T09:21:56.232Z,1026.56
2018-05-15T09:22:56.231Z,1026.43
2018-05-15T09:23:56.225Z,1026.57
2018-05-15T09:24:56.230Z,1026.37
2018-05-15T09:25:56.230Z,1026.43
2018-05-15T09:26:56.233Z,1026.18
2018-05-15T09:27:56.231Z,1026.12
2018-05-15T09:28:56.226Z,1026.04
2018-05-15T09:29:56.244Z,1026.01
2018-05-15T09:30:56.232Z,1026.03
2018-05-15T09:31:56.233Z,1025.98
2018-05-15T09:32:56.239Z,1025.84
2018-05-15T09:33:56.241Z,1025.83
2018-05-15T09:34:56.234Z,1025.96
2018-05-15T09:35:56.231Z,1025.58
2018-05-15T09:36:56.236Z,1025.67
2018-05-15T09:37:56.238Z,1025.51
2018-05-15T09:38:56.240Z,1025.67
2018-05-15T09:39:56.234Z,1025.46
2018-05-15T09:40:56.236Z,1025.49
2018-05-15T09:41:56.241Z,1025.43
2018-05-15T09:42:56.245Z,1025.41
2018-05-15T09:43:56.248Z,1025.17
2018-05-15T09:44:56.245Z,1025.09
2018-05-15T09:45:56.250Z,1024.99
2018-05-15T09:46:56.337Z,1024.89
2018-05-15T09:47:56.251Z,1024.64
2018-05-15T09:48:56.251Z,1024.62
2018-05-15T09:49:56.255Z,1024.57
2018-05-15T09:50:56.255Z,1024.54
2018-05-15T09:51:56.258Z,1024.84
2018-05-15T09:52:56.258Z,1024.62
2018-05-15T09:53:56.259Z,1024.61
2018-05-15T09:54:56.265Z,1024.66
2018-05-15T09:55:56.282Z,1024.57
2018-05-15T09:56:56.271Z,1024.78
2018-05-15T09:57:56.278Z,1024.68
2018-05-15T09:58:56.279Z,1024.66
2018-05-15T09:59:56.278Z,1024.62
2018-05-15T10:00:56.276Z,1024.6
2018-05-15T10:01:56.283Z,1024.66
2018-05-15T10:02:56.280Z,1024.56
2018-05-15T10:03:56.289Z,1024.54
2018-05-15T10:04:56.287Z,1024.49
2018-05-15T10:05:56.294Z,1024.48
2018-05-15T10:06:56.301Z,1024.42
2018-05-15T10:07:56.370Z,1024.49
2018-05-15T10:08:56.302Z,1024.49
2018-05-15T10:09:56.302Z,1024.47
2018-05-15T10:10:56.309Z,1024.55
2018-05-15T10:11:56.314Z,1024.56
2018-05-15T10:12:56.323Z,1024.54
2018-05-15T10:13:56.314Z,1024.41
2018-05-15T10:14:56.323Z,1024.42
2018-05-15T10:15:56.321Z,1024.29
2018-05-15T10:16:56.329Z,1024.28
2018-05-15T10:17:56.326Z,1024.33
2018-05-15T10:18:56.335Z,1024.21
2018-05-15T10:19:56.504Z,1024.29
2018-05-15T10:20:56.343Z,1024.42
2018-05-15T10:21:56.340Z,1024.5
2018-05-15T10:22:56.344Z,1024.57
2018-05-15T10:23:56.353Z,1024.62
2018-05-15T10:24:56.355Z,1024.59
2018-05-15T10:25:56.354Z,1024.63
2018-05-15T10:26:56.366Z,1024.53
2018-05-15T10:27:56.364Z,1024.46
2018-05-15T10:28:56.369Z,1024.47
2018-05-15T10:29:56.451Z,1024.42
2018-05-15T10:30:56.385Z,1024.43
2018-05-15T10:31:56.371Z,1024.47
2018-05-15T10:32:56.383Z,1024.44
2018-05-15T10:33:56.378Z,1024.4
2018-05-15T10:34:56.392Z,1024.48
2018-05-15T10:35:56.386Z,1024.42
2018-05-15T10:36:56.393Z,1024.36
2018-05-15T10:37:56.391Z,1024.35
2018-05-15T10:38:56.398Z,1024.36
2018-05-15T10:39:56.402Z,1024.37
2018-05-15T10:40:56.399Z,1024.39
2018-05-15T10:41:56.415Z,1024.34
2018-05-15T10:42:56.410Z,1024.24
2018-05-15T10:43:56.441Z,1024.2
2018-05-15T10:44:56.422Z,1024.23
2018-05-15T10:45:56.416Z,1024.3
2018-05-15T10:46:56.424Z,1024.32
2018-05-15T10:47:56.426Z,1024.25
2018-05-15T10:48:56.430Z,1024.18
2018-05-15T10:49:56.429Z,1024.24
2018-05-15T10:50:56.440Z,1024.03
2018-05-15T10:51:56.442Z,1024.09
2018-05-15T10:52:56.453Z,1024.23
2018-05-15T10:53:56.447Z,1024.21
2018-05-15T10:54:56.652Z,1024.14
2018-05-15T10:55:56.457Z,1024.08
2018-05-15T10:56:56.456Z,1024.14
2018-05-15T10:57:56.467Z,1023.98
2018-05-15T10:58:56.497Z,1024.1
2018-05-15T10:59:56.468Z,1024.14
2018-05-15T11:00:56.471Z,1024.01
2018-05-15T11:01:56.479Z,1024.15
2018-05-15T11:02:56.478Z,1024.09
2018-05-15T11:03:56.477Z,1024.1
2018-05-15T11:04:56.485Z,1024.1
2018-05-15T11:05:56.483Z,1024.02
2018-05-15T11:06:56.492Z,1023.97
2018-05-15T11:07:56.490Z,1024.01
2018-05-15T11:08:56.498Z,1023.96
2018-05-15T11:09:56.497Z,1024.07
2018-05-15T11:10:56.508Z,1023.98
2018-05-15T11:11:56.507Z,1024.09
2018-05-15T11:12:56.513Z,1024.12
2018-05-15T11:13:56.516Z,1024.17
2018-05-15T11:14:56.518Z,1024.34
2018-05-15T11:15:56.519Z,1024.37
2018-05-15T11:16:56.527Z,1024.3
2018-05-15T11:17:56.529Z,1024.34
2018-05-15T11:18:56.532Z,1024.38
2018-05-15T11:19:56.535Z,1024.25
2018-05-15T11:20:56.538Z,1024.17
2018-05-15T11:21:56.548Z,1024
2018-05-15T11:22:56.561Z,1024.02
2018-05-15T11:23:56.554Z,1023.76
2018-05-15T11:24:56.566Z,1023.8
2018-05-15T11:25:56.549Z,1023.6
2018-05-15T11:26:56.770Z,1023.62
2018-05-15T11:27:56.576Z,1023.56
2018-05-15T11:28:56.563Z,1023.39
2018-05-15T11:29:56.569Z,1023.34
2018-05-15T11:30:56.569Z,1023.23
2018-05-15T11:31:56.570Z,1023.41
2018-05-15T11:32:56.578Z,1023.29
2018-05-15T11:33:56.604Z,1023.46
2018-05-15T11:34:56.580Z,1023.37
2018-05-15T11:35:56.603Z,1023.36
2018-05-15T11:36:56.585Z,1023.36
2018-05-15T11:37:56.594Z,1023.43
2018-05-15T11:38:56.596Z,1023.31
2018-05-15T11:39:56.606Z,1023.18
2018-05-15T11:40:56.601Z,1023
2018-05-15T11:41:56.662Z,1023.01
2018-05-15T11:42:56.607Z,1023.25
2018-05-15T11:43:56.612Z,1023.35
2018-05-15T11:44:56.619Z,1023.26
2018-05-15T11:45:56.624Z,1023.35
2018-05-15T11:46:56.623Z,1023.49
2018-05-15T11:47:56.852Z,1023.31
2018-05-15T11:48:57.169Z,1023.37
2018-05-15T11:49:57.243Z,1023.28
2018-05-15T11:50:57.362Z,1023.05
2018-05-15T11:51:57.732Z,1023.13
2018-05-15T11:52:57.329Z,1022.9
2018-05-15T11:53:56.745Z,1022.79
2018-05-15T11:54:56.654Z,1022.68
2018-05-15T11:55:56.687Z,1022.65
2018-05-15T11:56:56.675Z,1022.76
2018-05-15T11:57:56.753Z,1023.05
2018-05-15T11:58:56.674Z,1023.17
2018-05-15T11:59:56.778Z,1023.31
2018-05-15T12:00:56.683Z,1023.51
2018-05-15T12:01:56.692Z,1023.72
2018-05-15T12:02:56.688Z,1023.93
2018-05-15T12:03:56.759Z,1024.19
2018-05-15T12:04:56.701Z,1024.3
2018-05-15T12:05:56.694Z,1024.46
2018-05-15T12:06:56.707Z,1024.56
2018-05-15T12:07:56.724Z,1024.64
2018-05-15T12:08:56.707Z,1024.66
2018-05-15T12:09:56.721Z,1024.81
2018-05-15T12:10:56.710Z,1025
2018-05-15T12:11:56.716Z,1025.02
2018-05-15T12:12:56.859Z,1025.31
2018-05-15T12:13:56.725Z,1025.36
2018-05-15T12:14:56.743Z,1025.48
2018-05-15T12:15:56.725Z,1025.57
2018-05-15T12:16:56.721Z,1025.78
2018-05-15T12:17:56.722Z,1026.05
2018-05-15T12:18:56.729Z,1026.33